Terminal Aerodrome Forecast
Issued by NWS

Home | Current Version | Previous Version | Text Only | Print | Product List | Glossary On
Versions: 1 2 3 4 5 6 7 8 9 10 11 12 13 14 15 16 17 18 19 20 21 22
000
FTUS43 KAPX 172328
TAFTVC
TAF
KTVC 172328Z 1800/1824 02005KT 3SM -DZ BR OVC004
     FM180200 VRB03KT 3SM BR OVC004
     FM181000 27004KT 3SM BR BKN008
     FM181700 23009KT 4SM BR BKN020
     FM182100 22009KT 6SM BR SCT060=

USA.gov is the U.S. government's official web portal to all federal, state and local government web resources and services.